Bookmark and Share
Track history (hours):
 

Battle Point

Last reported at 2014-Apr-15 20:21 UTC. Time now 2014-Apr-19 17:07 UTC.
Position N 47°42' W 122°37'.

Length 57 m; draft 3.2 m.

MMSI: 369970254.

NotesDate/timePositionNaut miles runAvg speedWind from/ knotsBaromVisibWave heightAir tempDewpointWater temp
2014-Apr-15 20:21N 47°42' W 122°37'7 8.3
2014-Apr-15 19:33N 47°36' W 122°35'3 2.9
2014-Apr-15 18:33N 47°34' W 122°32'0 0.0
2014-Apr-15 17:33N 47°34' W 122°32'0 0.0
2014-Apr-15 16:33N 47°34' W 122°32'0 0.0
2014-Apr-15 15:33N 47°34' W 122°32'4 4.3
2014-Apr-15 14:33N 47°37' W 122°35'  
2014-Apr-12 03:08N 47°42' W 122°37'2 3.9
2014-Apr-12 02:33N 47°43' W 122°34'8 8.3
2014-Apr-12 01:33N 47°50' W 122°29'10 9.5
2014-Apr-12 00:33N 47°58' W 122°36'10 9.5
2014-Apr-11 23:29N 48°08' W 122°40'9 9.5
2014-Apr-11 22:32N 48°16' W 122°46'1010.4
2014-Apr-11 21:33N 48°26' W 122°44'10 9.5
2014-Apr-11 20:33N 48°36' W 122°45'9 9.2
2014-Apr-11 19:33N 48°45' W 122°48'1111.2
2014-Apr-11 18:33N 48°51' W 123°02'1111.2
2014-Apr-11 17:33N 48°58' W 123°15'1111.2
2014-Apr-11 16:33N 49°05' W 123°29'1111.3
2014-Apr-11 15:33N 49°12' W 123°43'1111.2
2014-Apr-11 14:33N 49°15' W 123°59'2 0.1
2014-Apr-10 19:33N 49°17' W 124°02'3 3.5
2014-Apr-10 18:34N 49°20' W 123°60'3 2.6
2014-Apr-10 17:33N 49°18' W 123°57'0 0.1
2014-Apr-10 16:33N 49°18' W 123°57'6 5.8
2014-Apr-10 15:33N 49°16' W 124°05'6 0.3
2014-Apr-09 20:23N 49°18' W 123°57'0 0.3
2014-Apr-09 19:33N 49°18' W 123°57'1 0.6
2014-Apr-09 18:33N 49°18' W 123°56'0 0.4
2014-Apr-09 17:33N 49°19' W 123°56'1 0.6
2014-Apr-09 16:33N 49°19' W 123°57'0 0.4
2014-Apr-09 15:33N 49°19' W 123°57'8 8.5
2014-Apr-09 14:33N 49°16' W 124°09'0 0.1
2014-Apr-09 13:33N 49°16' W 124°09'0 0.0
2014-Apr-09 11:30N 49°16' W 124°09'0 0.0
2014-Apr-09 10:32N 49°16' W 124°09'0 0.0
2014-Apr-09 09:28N 49°16' W 124°09'0 0.0
2014-Apr-09 08:31N 49°16' W 124°09'0 0.0
2014-Apr-09 07:33N 49°16' W 124°09'0 0.0
2014-Apr-09 06:33N 49°16' W 124°09'0 0.0
2014-Apr-09 05:33N 49°16' W 124°09'0 0.0
2014-Apr-09 04:33N 49°16' W 124°09'0 0.0
2014-Apr-09 03:33N 49°16' W 124°09'0 0.0
2014-Apr-09 02:27N 49°16' W 124°09'0 0.0
2014-Apr-09 01:33N 49°16' W 124°09'1 1.0
2014-Apr-09 00:33N 49°16' W 124°08'8 7.6
2014-Apr-08 23:33N 49°19' W 123°57'5 4.6
2014-Apr-08 22:33N 49°20' W 124°04'1 0.5
2014-Apr-08 21:33N 49°20' W 124°05'0 0.0
2014-Apr-08 20:33N 49°20' W 124°05'0 0.0
2014-Apr-08 19:33N 49°20' W 124°05'2 1.6
2014-Apr-08 18:33N 49°20' W 124°02'0 0.1
2014-Apr-08 17:30N 49°20' W 124°02'0 0.1
2014-Apr-08 16:32N 49°20' W 124°03'0 0.2
2014-Apr-08 15:33N 49°20' W 124°02'6 5.9
2014-Apr-08 14:33N 49°16' W 124°09'1 0.0
2014-Apr-07 17:34N 49°16' W 124°08'7 6.8
2014-Apr-07 16:34N 49°20' W 123°59'2 1.8
2014-Apr-07 15:33N 49°18' W 124°01'  

Dump ship's entire track history

sailing weather and tide predictions

Battle Point — NMBY — position and weather